sensor_id;sensor_type;location;lat;lon;timestamp;temperature;humidity
21895;DHT22;11112;51.270;7.224;2022-11-20T00:02:22;6.80;93.20
21895;DHT22;11112;51.270;7.224;2022-11-20T00:04:49;6.80;93.10
21895;DHT22;11112;51.270;7.224;2022-11-20T00:07:16;6.80;93.20
21895;DHT22;11112;51.270;7.224;2022-11-20T00:09:43;6.80;93.20
21895;DHT22;11112;51.270;7.224;2022-11-20T00:12:10;6.80;93.30
21895;DHT22;11112;51.270;7.224;2022-11-20T00:14:37;6.80;93.20
21895;DHT22;11112;51.270;7.224;2022-11-20T00:17:05;6.80;93.20
21895;DHT22;11112;51.270;7.224;2022-11-20T00:19:32;6.80;93.30
21895;DHT22;11112;51.270;7.224;2022-11-20T00:22:00;6.80;93.30
21895;DHT22;11112;51.270;7.224;2022-11-20T00:24:27;6.80;93.20
21895;DHT22;11112;51.270;7.224;2022-11-20T00:26:54;6.80;93.30
21895;DHT22;11112;51.270;7.224;2022-11-20T00:29:21;6.80;93.50
21895;DHT22;11112;51.270;7.224;2022-11-20T00:31:48;6.80;93.50
21895;DHT22;11112;51.270;7.224;2022-11-20T00:34:16;6.80;93.50
21895;DHT22;11112;51.270;7.224;2022-11-20T00:36:43;6.80;93.60
21895;DHT22;11112;51.270;7.224;2022-11-20T00:39:10;6.80;93.50
21895;DHT22;11112;51.270;7.224;2022-11-20T00:41:37;6.80;93.40
21895;DHT22;11112;51.270;7.224;2022-11-20T00:44:04;6.80;93.50
21895;DHT22;11112;51.270;7.224;2022-11-20T00:46:31;6.80;93.60
21895;DHT22;11112;51.270;7.224;2022-11-20T00:48:59;6.80;93.50
21895;DHT22;11112;51.270;7.224;2022-11-20T00:51:28;6.80;93.50
21895;DHT22;11112;51.270;7.224;2022-11-20T00:53:56;6.70;93.60
21895;DHT22;11112;51.270;7.224;2022-11-20T00:56:23;6.70;93.60
21895;DHT22;11112;51.270;7.224;2022-11-20T00:58:50;6.70;93.60
21895;DHT22;11112;51.270;7.224;2022-11-20T01:01:19;6.60;93.70
21895;DHT22;11112;51.270;7.224;2022-11-20T01:03:49;6.60;93.80
21895;DHT22;11112;51.270;7.224;2022-11-20T01:06:19;6.60;93.90
21895;DHT22;11112;51.270;7.224;2022-11-20T01:08:49;6.70;93.90
21895;DHT22;11112;51.270;7.224;2022-11-20T01:11:18;6.70;93.90
21895;DHT22;11112;51.270;7.224;2022-11-20T01:13:47;6.70;94.00
21895;DHT22;11112;51.270;7.224;2022-11-20T01:16:16;6.70;93.90
21895;DHT22;11112;51.270;7.224;2022-11-20T01:18:46;6.80;94.00
21895;DHT22;11112;51.270;7.224;2022-11-20T01:21:17;6.80;93.80
21895;DHT22;11112;51.270;7.224;2022-11-20T01:23:48;6.80;93.90
21895;DHT22;11112;51.270;7.224;2022-11-20T01:26:17;6.90;93.80
21895;DHT22;11112;51.270;7.224;2022-11-20T01:28:45;6.90;93.50
21895;DHT22;11112;51.270;7.224;2022-11-20T01:31:15;6.90;93.80
21895;DHT22;11112;51.270;7.224;2022-11-20T01:33:44;6.90;93.80
21895;DHT22;11112;51.270;7.224;2022-11-20T01:36:12;6.90;93.80
21895;DHT22;11112;51.270;7.224;2022-11-20T01:38:40;6.90;93.60
21895;DHT22;11112;51.270;7.224;2022-11-20T01:41:09;6.80;93.60
21895;DHT22;11112;51.270;7.224;2022-11-20T01:43:57;6.80;93.70
21895;DHT22;11112;51.270;7.224;2022-11-20T01:46:23;6.80;93.60
21895;DHT22;11112;51.270;7.224;2022-11-20T01:48:56;6.80;93.70
21895;DHT22;11112;51.270;7.224;2022-11-20T01:51:27;6.90;93.80
21895;DHT22;11112;51.270;7.224;2022-11-20T01:53:58;6.90;93.70
21895;DHT22;11112;51.270;7.224;2022-11-20T01:56:28;6.90;93.60
21895;DHT22;11112;51.270;7.224;2022-11-20T01:59:02;6.90;93.70
21895;DHT22;11112;51.270;7.224;2022-11-20T02:01:30;6.90;93.70
21895;DHT22;11112;51.270;7.224;2022-11-20T02:03:58;6.90;93.70
21895;DHT22;11112;51.270;7.224;2022-11-20T02:06:28;6.90;93.60
21895;DHT22;11112;51.270;7.224;2022-11-20T02:08:57;6.90;93.60
21895;DHT22;11112;51.270;7.224;2022-11-20T02:11:24;6.90;93.70
21895;DHT22;11112;51.270;7.224;2022-11-20T02:13:53;6.90;93.60
21895;DHT22;11112;51.270;7.224;2022-11-20T02:16:23;6.90;93.70
21895;DHT22;11112;51.270;7.224;2022-11-20T02:18:51;6.90;93.70
21895;DHT22;11112;51.270;7.224;2022-11-20T02:21:32;6.90;93.80
21895;DHT22;11112;51.270;7.224;2022-11-20T02:24:05;6.90;93.80
21895;DHT22;11112;51.270;7.224;2022-11-20T02:26:37;6.90;93.80
21895;DHT22;11112;51.270;7.224;2022-11-20T02:29:07;6.80;93.80
21895;DHT22;11112;51.270;7.224;2022-11-20T02:31:37;6.90;93.80
21895;DHT22;11112;51.270;7.224;2022-11-20T02:34:05;6.90;93.90
21895;DHT22;11112;51.270;7.224;2022-11-20T02:36:33;6.90;93.70
21895;DHT22;11112;51.270;7.224;2022-11-20T02:39:03;6.90;93.80
21895;DHT22;11112;51.270;7.224;2022-11-20T02:41:32;6.90;93.90
21895;DHT22;11112;51.270;7.224;2022-11-20T02:44:00;7.00;94.00
21895;DHT22;11112;51.270;7.224;2022-11-20T02:46:27;6.90;94.00
21895;DHT22;11112;51.270;7.224;2022-11-20T02:48:54;6.90;94.00
21895;DHT22;11112;51.270;7.224;2022-11-20T02:51:22;6.90;94.00
21895;DHT22;11112;51.270;7.224;2022-11-20T02:53:49;6.90;94.00
21895;DHT22;11112;51.270;7.224;2022-11-20T02:56:18;7.00;94.10
21895;DHT22;11112;51.270;7.224;2022-11-20T02:58:45;7.00;94.20
21895;DHT22;11112;51.270;7.224;2022-11-20T03:01:37;7.00;94.20
21895;DHT22;11112;51.270;7.224;2022-11-20T03:04:04;7.00;94.00
21895;DHT22;11112;51.270;7.224;2022-11-20T03:06:32;7.00;94.00
21895;DHT22;11112;51.270;7.224;2022-11-20T03:08:59;7.00;93.80
21895;DHT22;11112;51.270;7.224;2022-11-20T03:11:28;7.00;94.00
21895;DHT22;11112;51.270;7.224;2022-11-20T03:13:55;7.00;94.00
21895;DHT22;11112;51.270;7.224;2022-11-20T03:16:23;7.00;94.00
21895;DHT22;11112;51.270;7.224;2022-11-20T03:18:52;7.00;94.10
21895;DHT22;11112;51.270;7.224;2022-11-20T03:21:19;7.00;94.10
21895;DHT22;11112;51.270;7.224;2022-11-20T03:23:46;6.90;94.10
21895;DHT22;11112;51.270;7.224;2022-11-20T03:26:15;6.80;94.20
21895;DHT22;11112;51.270;7.224;2022-11-20T03:28:50;6.80;94.30
21895;DHT22;11112;51.270;7.224;2022-11-20T03:31:20;6.70;94.50
21895;DHT22;11112;51.270;7.224;2022-11-20T03:33:48;6.80;94.90
21895;DHT22;11112;51.270;7.224;2022-11-20T03:36:16;6.90;94.50
21895;DHT22;11112;51.270;7.224;2022-11-20T03:38:44;6.90;94.60
21895;DHT22;11112;51.270;7.224;2022-11-20T03:41:14;6.90;94.40
21895;DHT22;11112;51.270;7.224;2022-11-20T03:43:48;6.80;94.40
21895;DHT22;11112;51.270;7.224;2022-11-20T03:46:15;6.80;94.40
21895;DHT22;11112;51.270;7.224;2022-11-20T03:48:43;6.80;94.40
21895;DHT22;11112;51.270;7.224;2022-11-20T03:51:12;6.70;94.40
21895;DHT22;11112;51.270;7.224;2022-11-20T03:53:41;6.80;94.50
21895;DHT22;11112;51.270;7.224;2022-11-20T03:56:10;6.80;94.50
21895;DHT22;11112;51.270;7.224;2022-11-20T03:58:39;6.80;94.50
21895;DHT22;11112;51.270;7.224;2022-11-20T04:01:09;6.80;94.60
21895;DHT22;11112;51.270;7.224;2022-11-20T04:03:38;6.80;94.60
21895;DHT22;11112;51.270;7.224;2022-11-20T04:06:09;6.90;94.60
21895;DHT22;11112;51.270;7.224;2022-11-20T04:08:38;6.90;94.60
21895;DHT22;11112;51.270;7.224;2022-11-20T04:11:13;6.90;94.30
21895;DHT22;11112;51.270;7.224;2022-11-20T04:13:41;6.80;94.40
21895;DHT22;11112;51.270;7.224;2022-11-20T04:16:10;6.80;94.50
21895;DHT22;11112;51.270;7.224;2022-11-20T04:18:37;6.80;94.60
21895;DHT22;11112;51.270;7.224;2022-11-20T04:21:05;6.90;94.60
21895;DHT22;11112;51.270;7.224;2022-11-20T04:23:33;6.90;94.60
21895;DHT22;11112;51.270;7.224;2022-11-20T04:26:03;6.90;94.50
21895;DHT22;11112;51.270;7.224;2022-11-20T04:28:31;6.90;94.80
21895;DHT22;11112;51.270;7.224;2022-11-20T04:31:05;6.90;94.70
21895;DHT22;11112;51.270;7.224;2022-11-20T04:33:36;7.00;94.60
21895;DHT22;11112;51.270;7.224;2022-11-20T04:36:05;6.80;94.60
21895;DHT22;11112;51.270;7.224;2022-11-20T04:38:33;6.80;94.70
21895;DHT22;11112;51.270;7.224;2022-11-20T04:41:02;6.80;94.70
21895;DHT22;11112;51.270;7.224;2022-11-20T04:43:31;6.80;94.80
21895;DHT22;11112;51.270;7.224;2022-11-20T04:45:59;6.90;94.80
21895;DHT22;11112;51.270;7.224;2022-11-20T04:48:29;6.90;94.60
21895;DHT22;11112;51.270;7.224;2022-11-20T04:50:57;7.00;94.60
21895;DHT22;11112;51.270;7.224;2022-11-20T04:53:29;7.00;94.60
21895;DHT22;11112;51.270;7.224;2022-11-20T04:55:59;7.00;94.50
21895;DHT22;11112;51.270;7.224;2022-11-20T04:58:27;7.00;94.30
21895;DHT22;11112;51.270;7.224;2022-11-20T05:00:59;6.90;94.40
21895;DHT22;11112;51.270;7.224;2022-11-20T05:03:27;6.90;94.30
21895;DHT22;11112;51.270;7.224;2022-11-20T05:05:54;6.90;94.20
21895;DHT22;11112;51.270;7.224;2022-11-20T05:08:22;7.00;94.00
21895;DHT22;11112;51.270;7.224;2022-11-20T05:10:49;7.00;93.90
21895;DHT22;11112;51.270;7.224;2022-11-20T05:13:16;7.00;93.90
21895;DHT22;11112;51.270;7.224;2022-11-20T05:15:43;7.00;93.90
21895;DHT22;11112;51.270;7.224;2022-11-20T05:18:10;7.00;93.90
21895;DHT22;11112;51.270;7.224;2022-11-20T05:20:37;7.00;93.70
21895;DHT22;11112;51.270;7.224;2022-11-20T05:23:04;7.00;93.70
21895;DHT22;11112;51.270;7.224;2022-11-20T05:25:33;7.00;93.70
21895;DHT22;11112;51.270;7.224;2022-11-20T05:28:00;7.00;93.70
21895;DHT22;11112;51.270;7.224;2022-11-20T05:30:27;7.00;93.70
21895;DHT22;11112;51.270;7.224;2022-11-20T05:32:54;7.00;93.80
21895;DHT22;11112;51.270;7.224;2022-11-20T05:35:21;7.00;93.80
21895;DHT22;11112;51.270;7.224;2022-11-20T05:37:48;7.00;93.70
21895;DHT22;11112;51.270;7.224;2022-11-20T05:40:15;7.00;93.60
21895;DHT22;11112;51.270;7.224;2022-11-20T05:42:44;6.80;93.60
21895;DHT22;11112;51.270;7.224;2022-11-20T05:45:11;6.80;93.90
21895;DHT22;11112;51.270;7.224;2022-11-20T05:47:37;6.90;94.00
21895;DHT22;11112;51.270;7.224;2022-11-20T05:50:05;6.90;93.80
21895;DHT22;11112;51.270;7.224;2022-11-20T05:52:32;6.70;93.80
21895;DHT22;11112;51.270;7.224;2022-11-20T05:54:59;6.70;93.90
21895;DHT22;11112;51.270;7.224;2022-11-20T05:57:27;6.80;93.90
21895;DHT22;11112;51.270;7.224;2022-11-20T05:59:55;6.90;94.00
21895;DHT22;11112;51.270;7.224;2022-11-20T06:02:22;6.90;94.00
21895;DHT22;11112;51.270;7.224;2022-11-20T06:04:49;7.00;94.00
21895;DHT22;11112;51.270;7.224;2022-11-20T06:07:16;7.00;93.80
21895;DHT22;11112;51.270;7.224;2022-11-20T06:09:43;7.00;93.80
21895;DHT22;11112;51.270;7.224;2022-11-20T06:12:10;7.00;93.70
21895;DHT22;11112;51.270;7.224;2022-11-20T06:14:37;7.00;93.80
21895;DHT22;11112;51.270;7.224;2022-11-20T06:17:06;7.00;93.80
21895;DHT22;11112;51.270;7.224;2022-11-20T06:19:33;7.00;93.90
21895;DHT22;11112;51.270;7.224;2022-11-20T06:22:00;7.10;93.80
21895;DHT22;11112;51.270;7.224;2022-11-20T06:24:27;7.10;93.90
21895;DHT22;11112;51.270;7.224;2022-11-20T06:26:54;7.10;93.80
21895;DHT22;11112;51.270;7.224;2022-11-20T06:29:21;7.00;93.70
21895;DHT22;11112;51.270;7.224;2022-11-20T06:31:48;7.10;93.70
21895;DHT22;11112;51.270;7.224;2022-11-20T06:34:16;7.00;93.60
21895;DHT22;11112;51.270;7.224;2022-11-20T06:36:43;7.00;93.60
21895;DHT22;11112;51.270;7.224;2022-11-20T06:39:11;7.00;93.60
21895;DHT22;11112;51.270;7.224;2022-11-20T06:41:38;7.00;93.60
21895;DHT22;11112;51.270;7.224;2022-11-20T06:44:05;7.00;93.70
21895;DHT22;11112;51.270;7.224;2022-11-20T06:46:32;7.00;93.70
21895;DHT22;11112;51.270;7.224;2022-11-20T06:48:59;7.00;93.70
21895;DHT22;11112;51.270;7.224;2022-11-20T06:51:27;7.00;93.70
21895;DHT22;11112;51.270;7.224;2022-11-20T06:53:54;7.00;93.70
21895;DHT22;11112;51.270;7.224;2022-11-20T06:56:21;7.00;93.70
21895;DHT22;11112;51.270;7.224;2022-11-20T06:58:48;7.10;93.80
21895;DHT22;11112;51.270;7.224;2022-11-20T07:01:15;7.10;93.70
21895;DHT22;11112;51.270;7.224;2022-11-20T07:03:43;7.00;93.50
21895;DHT22;11112;51.270;7.224;2022-11-20T07:06:10;7.00;93.60
21895;DHT22;11112;51.270;7.224;2022-11-20T07:08:39;7.00;93.60
21895;DHT22;11112;51.270;7.224;2022-11-20T07:11:06;7.10;93.50
21895;DHT22;11112;51.270;7.224;2022-11-20T07:13:34;7.00;93.40
21895;DHT22;11112;51.270;7.224;2022-11-20T07:16:03;7.00;93.00
21895;DHT22;11112;51.270;7.224;2022-11-20T07:18:31;7.00;92.90
21895;DHT22;11112;51.270;7.224;2022-11-20T07:21:00;7.00;92.70
21895;DHT22;11112;51.270;7.224;2022-11-20T07:23:27;7.00;92.80
21895;DHT22;11112;51.270;7.224;2022-11-20T07:25:56;7.00;92.40
21895;DHT22;11112;51.270;7.224;2022-11-20T07:28:23;7.00;92.30
21895;DHT22;11112;51.270;7.224;2022-11-20T07:30:50;7.00;92.50
21895;DHT22;11112;51.270;7.224;2022-11-20T07:33:17;7.00;92.30
21895;DHT22;11112;51.270;7.224;2022-11-20T07:35:45;7.00;92.30
21895;DHT22;11112;51.270;7.224;2022-11-20T07:38:12;7.00;92.20
21895;DHT22;11112;51.270;7.224;2022-11-20T07:40:39;7.00;92.10
21895;DHT22;11112;51.270;7.224;2022-11-20T07:43:07;7.00;92.20
21895;DHT22;11112;51.270;7.224;2022-11-20T07:45:34;7.10;92.30
21895;DHT22;11112;51.270;7.224;2022-11-20T07:48:02;7.00;92.00
21895;DHT22;11112;51.270;7.224;2022-11-20T07:50:29;7.00;91.90
21895;DHT22;11112;51.270;7.224;2022-11-20T07:53:01;7.00;91.80
21895;DHT22;11112;51.270;7.224;2022-11-20T07:55:30;7.00;91.80
21895;DHT22;11112;51.270;7.224;2022-11-20T07:57:57;7.00;91.80
21895;DHT22;11112;51.270;7.224;2022-11-20T08:00:26;7.10;91.90
21895;DHT22;11112;51.270;7.224;2022-11-20T08:02:54;7.10;91.70
21895;DHT22;11112;51.270;7.224;2022-11-20T08:05:21;7.10;91.40
21895;DHT22;11112;51.270;7.224;2022-11-20T08:07:48;6.90;91.30
21895;DHT22;11112;51.270;7.224;2022-11-20T08:10:16;6.90;91.60
21895;DHT22;11112;51.270;7.224;2022-11-20T08:12:44;6.90;91.80
21895;DHT22;11112;51.270;7.224;2022-11-20T08:15:30;6.90;91.80
21895;DHT22;11112;51.270;7.224;2022-11-20T08:18:02;7.00;91.70
21895;DHT22;11112;51.270;7.224;2022-11-20T08:20:30;7.00;91.70
21895;DHT22;11112;51.270;7.224;2022-11-20T08:22:58;7.00;91.70
21895;DHT22;11112;51.270;7.224;2022-11-20T08:25:26;7.00;91.70
21895;DHT22;11112;51.270;7.224;2022-11-20T08:27:56;7.00;91.60
21895;DHT22;11112;51.270;7.224;2022-11-20T08:30:24;7.10;91.90
21895;DHT22;11112;51.270;7.224;2022-11-20T08:32:53;7.10;91.80
21895;DHT22;11112;51.270;7.224;2022-11-20T08:35:21;7.10;91.50
21895;DHT22;11112;51.270;7.224;2022-11-20T08:37:49;7.10;91.30
21895;DHT22;11112;51.270;7.224;2022-11-20T08:40:16;7.10;91.30
21895;DHT22;11112;51.270;7.224;2022-11-20T08:42:47;7.20;91.40
21895;DHT22;11112;51.270;7.224;2022-11-20T08:45:15;7.20;91.50
21895;DHT22;11112;51.270;7.224;2022-11-20T08:47:43;7.20;91.10
21895;DHT22;11112;51.270;7.224;2022-11-20T08:50:13;7.20;91.20
21895;DHT22;11112;51.270;7.224;2022-11-20T08:52:41;7.20;91.30
21895;DHT22;11112;51.270;7.224;2022-11-20T08:55:09;7.20;91.30
21895;DHT22;11112;51.270;7.224;2022-11-20T08:57:37;7.20;91.30
21895;DHT22;11112;51.270;7.224;2022-11-20T09:00:06;7.20;91.10
21895;DHT22;11112;51.270;7.224;2022-11-20T09:02:34;7.30;91.20
21895;DHT22;11112;51.270;7.224;2022-11-20T09:05:02;7.30;91.10
21895;DHT22;11112;51.270;7.224;2022-11-20T09:07:30;7.30;91.30
21895;DHT22;11112;51.270;7.224;2022-11-20T09:09:57;7.30;91.30
21895;DHT22;11112;51.270;7.224;2022-11-20T09:12:25;7.20;91.30
21895;DHT22;11112;51.270;7.224;2022-11-20T09:14:52;7.30;91.40
21895;DHT22;11112;51.270;7.224;2022-11-20T09:17:19;7.30;91.40
21895;DHT22;11112;51.270;7.224;2022-11-20T09:19:46;7.30;91.30
21895;DHT22;11112;51.270;7.224;2022-11-20T09:22:14;7.20;91.30
21895;DHT22;11112;51.270;7.224;2022-11-20T09:24:42;7.20;91.40
21895;DHT22;11112;51.270;7.224;2022-11-20T09:27:09;7.20;91.30
21895;DHT22;11112;51.270;7.224;2022-11-20T09:29:36;7.10;91.30
21895;DHT22;11112;51.270;7.224;2022-11-20T09:32:04;7.10;91.40
21895;DHT22;11112;51.270;7.224;2022-11-20T09:34:31;7.20;91.40
21895;DHT22;11112;51.270;7.224;2022-11-20T09:36:58;7.10;91.40
21895;DHT22;11112;51.270;7.224;2022-11-20T09:39:25;7.20;91.50
21895;DHT22;11112;51.270;7.224;2022-11-20T09:42:04;7.20;91.50
21895;DHT22;11112;51.270;7.224;2022-11-20T09:44:51;7.20;91.40
21895;DHT22;11112;51.270;7.224;2022-11-20T09:47:32;7.30;91.40
21895;DHT22;11112;51.270;7.224;2022-11-20T09:50:19;7.20;91.20
21895;DHT22;11112;51.270;7.224;2022-11-20T09:52:59;7.20;91.20
21895;DHT22;11112;51.270;7.224;2022-11-20T09:55:36;7.20;91.20
21895;DHT22;11112;51.270;7.224;2022-11-20T09:58:07;7.20;91.20
21895;DHT22;11112;51.270;7.224;2022-11-20T10:00:41;7.20;91.10
21895;DHT22;11112;51.270;7.224;2022-11-20T10:03:14;7.10;91.20
21895;DHT22;11112;51.270;7.224;2022-11-20T10:05:46;7.20;91.40
21895;DHT22;11112;51.270;7.224;2022-11-20T10:08:17;7.20;91.30
21895;DHT22;11112;51.270;7.224;2022-11-20T10:10:50;7.20;90.90
21895;DHT22;11112;51.270;7.224;2022-11-20T10:13:29;7.10;91.20
21895;DHT22;11112;51.270;7.224;2022-11-20T10:16:15;7.20;91.10
21895;DHT22;11112;51.270;7.224;2022-11-20T10:19:04;7.20;91.00
21895;DHT22;11112;51.270;7.224;2022-11-20T10:21:46;7.30;91.20
21895;DHT22;11112;51.270;7.224;2022-11-20T10:24:46;7.30;91.10
21895;DHT22;11112;51.270;7.224;2022-11-20T10:27:50;7.30;91.00
21895;DHT22;11112;51.270;7.224;2022-11-20T10:30:24;7.40;91.20
21895;DHT22;11112;51.270;7.224;2022-11-20T10:32:56;7.40;91.00
21895;DHT22;11112;51.270;7.224;2022-11-20T10:35:32;7.40;91.10
21895;DHT22;11112;51.270;7.224;2022-11-20T10:38:05;7.40;91.10
21895;DHT22;11112;51.270;7.224;2022-11-20T10:40:39;7.40;91.10
21895;DHT22;11112;51.270;7.224;2022-11-20T10:43:13;7.40;91.20
21895;DHT22;11112;51.270;7.224;2022-11-20T10:45:48;7.40;91.20
21895;DHT22;11112;51.270;7.224;2022-11-20T10:48:21;7.40;91.70
21895;DHT22;11112;51.270;7.224;2022-11-20T10:51:05;7.40;91.30
21895;DHT22;11112;51.270;7.224;2022-11-20T10:53:45;7.50;91.40
21895;DHT22;11112;51.270;7.224;2022-11-20T10:56:21;7.40;91.30
21895;DHT22;11112;51.270;7.224;2022-11-20T10:59:04;7.40;91.50
21895;DHT22;11112;51.270;7.224;2022-11-20T11:01:47;7.30;91.50
21895;DHT22;11112;51.270;7.224;2022-11-20T11:04:35;7.30;91.80
21895;DHT22;11112;51.270;7.224;2022-11-20T11:07:09;7.30;91.80
21895;DHT22;11112;51.270;7.224;2022-11-20T11:09:41;7.40;91.90
21895;DHT22;11112;51.270;7.224;2022-11-20T11:12:10;7.40;91.90
21895;DHT22;11112;51.270;7.224;2022-11-20T11:14:46;7.40;92.00
21895;DHT22;11112;51.270;7.224;2022-11-20T11:17:22;7.40;92.10
21895;DHT22;11112;51.270;7.224;2022-11-20T11:20:04;7.40;92.00
21895;DHT22;11112;51.270;7.224;2022-11-20T11:22:39;7.30;92.10
21895;DHT22;11112;51.270;7.224;2022-11-20T11:25:26;7.40;92.30
21895;DHT22;11112;51.270;7.224;2022-11-20T11:27:56;7.40;92.30
21895;DHT22;11112;51.270;7.224;2022-11-20T11:30:25;7.40;92.40
21895;DHT22;11112;51.270;7.224;2022-11-20T11:33:05;7.40;92.30
21895;DHT22;11112;51.270;7.224;2022-11-20T11:35:33;7.30;92.40
21895;DHT22;11112;51.270;7.224;2022-11-20T11:38:05;7.40;92.50
21895;DHT22;11112;51.270;7.224;2022-11-20T11:40:35;7.40;92.60
21895;DHT22;11112;51.270;7.224;2022-11-20T11:43:05;7.40;92.70
21895;DHT22;11112;51.270;7.224;2022-11-20T11:45:54;7.50;92.70
21895;DHT22;11112;51.270;7.224;2022-11-20T11:48:22;7.50;92.70
21895;DHT22;11112;51.270;7.224;2022-11-20T11:50:49;7.40;92.60
21895;DHT22;11112;51.270;7.224;2022-11-20T11:53:18;7.50;92.70
21895;DHT22;11112;51.270;7.224;2022-11-20T11:55:49;7.40;92.80
21895;DHT22;11112;51.270;7.224;2022-11-20T11:58:37;7.40;92.80
21895;DHT22;11112;51.270;7.224;2022-11-20T12:01:20;7.40;92.90
21895;DHT22;11112;51.270;7.224;2022-11-20T12:03:59;7.40;92.70
21895;DHT22;11112;51.270;7.224;2022-11-20T12:06:30;7.40;92.70
21895;DHT22;11112;51.270;7.224;2022-11-20T12:09:01;7.40;92.90
21895;DHT22;11112;51.270;7.224;2022-11-20T12:11:33;7.40;92.90
21895;DHT22;11112;51.270;7.224;2022-11-20T12:14:04;7.40;92.90
21895;DHT22;11112;51.270;7.224;2022-11-20T12:16:39;7.40;93.00
21895;DHT22;11112;51.270;7.224;2022-11-20T12:19:11;7.40;93.10
21895;DHT22;11112;51.270;7.224;2022-11-20T12:21:51;7.40;93.10
21895;DHT22;11112;51.270;7.224;2022-11-20T12:24:36;7.50;93.20
21895;DHT22;11112;51.270;7.224;2022-11-20T12:30:09;7.40;93.40
21895;DHT22;11112;51.270;7.224;2022-11-20T12:32:55;7.40;93.40
21895;DHT22;11112;51.270;7.224;2022-11-20T12:35:47;7.40;93.30
21895;DHT22;11112;51.270;7.224;2022-11-20T12:45:51;7.50;93.50
21895;DHT22;11112;51.270;7.224;2022-11-20T12:48:46;7.50;93.60
21895;DHT22;11112;51.270;7.224;2022-11-20T12:54:33;7.50;93.50
21895;DHT22;11112;51.270;7.224;2022-11-20T12:57:12;7.50;93.80
21895;DHT22;11112;51.270;7.224;2022-11-20T13:00:14;7.50;93.80
21895;DHT22;11112;51.270;7.224;2022-11-20T13:06:13;7.50;93.90
21895;DHT22;11112;51.270;7.224;2022-11-20T13:08:48;7.40;94.10
21895;DHT22;11112;51.270;7.224;2022-11-20T13:11:24;7.40;94.50
21895;DHT22;11112;51.270;7.224;2022-11-20T13:14:12;7.50;94.30
21895;DHT22;11112;51.270;7.224;2022-11-20T13:16:50;7.40;94.20
21895;DHT22;11112;51.270;7.224;2022-11-20T13:19:19;7.30;94.20
21895;DHT22;11112;51.270;7.224;2022-11-20T13:21:47;7.30;94.40
21895;DHT22;11112;51.270;7.224;2022-11-20T13:24:27;7.30;94.40
21895;DHT22;11112;51.270;7.224;2022-11-20T13:27:18;7.30;94.40
21895;DHT22;11112;51.270;7.224;2022-11-20T13:29:58;7.20;94.50
21895;DHT22;11112;51.270;7.224;2022-11-20T13:32:27;7.20;94.60
21895;DHT22;11112;51.270;7.224;2022-11-20T13:34:59;7.20;94.60
21895;DHT22;11112;51.270;7.224;2022-11-20T13:37:30;7.20;94.70
21895;DHT22;11112;51.270;7.224;2022-11-20T13:40:21;7.20;94.60
21895;DHT22;11112;51.270;7.224;2022-11-20T13:43:00;7.20;94.70
21895;DHT22;11112;51.270;7.224;2022-11-20T13:45:30;7.20;95.00
21895;DHT22;11112;51.270;7.224;2022-11-20T13:48:01;7.20;95.20
21895;DHT22;11112;51.270;7.224;2022-11-20T13:50:40;7.10;95.40
21895;DHT22;11112;51.270;7.224;2022-11-20T13:53:26;7.10;95.70
21895;DHT22;11112;51.270;7.224;2022-11-20T13:56:07;7.10;95.80
21895;DHT22;11112;51.270;7.224;2022-11-20T13:58:46;7.10;95.90
21895;DHT22;11112;51.270;7.224;2022-11-20T14:01:19;7.10;96.00
21895;DHT22;11112;51.270;7.224;2022-11-20T14:03:47;7.10;96.20
21895;DHT22;11112;51.270;7.224;2022-11-20T14:06:23;7.20;96.40
21895;DHT22;11112;51.270;7.224;2022-11-20T14:08:54;7.20;96.50
21895;DHT22;11112;51.270;7.224;2022-11-20T14:11:25;7.20;96.50
21895;DHT22;11112;51.270;7.224;2022-11-20T14:13:58;7.20;96.50
21895;DHT22;11112;51.270;7.224;2022-11-20T14:16:28;7.20;96.50
21895;DHT22;11112;51.270;7.224;2022-11-20T14:18:58;7.20;96.50
21895;DHT22;11112;51.270;7.224;2022-11-20T14:21:52;7.20;96.70
21895;DHT22;11112;51.270;7.224;2022-11-20T14:24:21;7.30;96.70
21895;DHT22;11112;51.270;7.224;2022-11-20T14:26:51;7.20;96.80
21895;DHT22;11112;51.270;7.224;2022-11-20T14:29:21;7.20;96.90
21895;DHT22;11112;51.270;7.224;2022-11-20T14:31:51;7.20;97.10
21895;DHT22;11112;51.270;7.224;2022-11-20T14:34:21;7.20;97.20
21895;DHT22;11112;51.270;7.224;2022-11-20T14:36:53;7.10;97.30
21895;DHT22;11112;51.270;7.224;2022-11-20T14:39:26;7.20;97.40
21895;DHT22;11112;51.270;7.224;2022-11-20T14:41:57;7.20;97.50
21895;DHT22;11112;51.270;7.224;2022-11-20T14:44:27;7.20;97.60
21895;DHT22;11112;51.270;7.224;2022-11-20T14:46:59;7.20;97.60
21895;DHT22;11112;51.270;7.224;2022-11-20T14:49:29;7.20;97.80
21895;DHT22;11112;51.270;7.224;2022-11-20T14:52:01;7.10;98.00
21895;DHT22;11112;51.270;7.224;2022-11-20T14:54:29;7.20;98.20
21895;DHT22;11112;51.270;7.224;2022-11-20T14:57:00;7.10;98.20
21895;DHT22;11112;51.270;7.224;2022-11-20T14:59:31;7.10;98.30
21895;DHT22;11112;51.270;7.224;2022-11-20T15:02:01;7.10;98.20
21895;DHT22;11112;51.270;7.224;2022-11-20T15:04:30;7.10;98.30
21895;DHT22;11112;51.270;7.224;2022-11-20T15:06:58;7.00;98.40
21895;DHT22;11112;51.270;7.224;2022-11-20T15:09:26;7.00;98.50
21895;DHT22;11112;51.270;7.224;2022-11-20T15:11:55;7.00;98.50
21895;DHT22;11112;51.270;7.224;2022-11-20T15:14:27;7.00;98.50
21895;DHT22;11112;51.270;7.224;2022-11-20T15:16:55;7.00;98.50
21895;DHT22;11112;51.270;7.224;2022-11-20T15:19:24;7.00;98.60
21895;DHT22;11112;51.270;7.224;2022-11-20T15:21:52;7.00;98.50
21895;DHT22;11112;51.270;7.224;2022-11-20T15:24:20;7.00;98.50
21895;DHT22;11112;51.270;7.224;2022-11-20T15:26:47;7.00;98.50
21895;DHT22;11112;51.270;7.224;2022-11-20T15:29:16;6.90;98.50
21895;DHT22;11112;51.270;7.224;2022-11-20T15:31:44;7.00;98.60
21895;DHT22;11112;51.270;7.224;2022-11-20T15:34:13;7.00;98.60
21895;DHT22;11112;51.270;7.224;2022-11-20T15:36:41;7.00;98.50
21895;DHT22;11112;51.270;7.224;2022-11-20T15:39:09;7.00;98.60
21895;DHT22;11112;51.270;7.224;2022-11-20T15:41:37;7.00;98.70
21895;DHT22;11112;51.270;7.224;2022-11-20T15:44:05;6.90;98.70
21895;DHT22;11112;51.270;7.224;2022-11-20T15:46:37;6.90;98.70
21895;DHT22;11112;51.270;7.224;2022-11-20T15:49:12;6.90;98.80
21895;DHT22;11112;51.270;7.224;2022-11-20T15:51:41;6.90;98.90
21895;DHT22;11112;51.270;7.224;2022-11-20T15:54:13;6.90;99.30
21895;DHT22;11112;51.270;7.224;2022-11-20T15:56:41;6.90;99.00
21895;DHT22;11112;51.270;7.224;2022-11-20T15:59:08;6.90;99.10
21895;DHT22;11112;51.270;7.224;2022-11-20T16:01:36;6.90;99.00
21895;DHT22;11112;51.270;7.224;2022-11-20T16:04:07;7.00;99.10
21895;DHT22;11112;51.270;7.224;2022-11-20T16:06:36;7.00;99.10
21895;DHT22;11112;51.270;7.224;2022-11-20T16:09:03;7.00;99.20
21895;DHT22;11112;51.270;7.224;2022-11-20T16:11:30;7.00;99.30
21895;DHT22;11112;51.270;7.224;2022-11-20T16:13:58;7.10;99.40
21895;DHT22;11112;51.270;7.224;2022-11-20T16:16:44;7.10;99.60
21895;DHT22;11112;51.270;7.224;2022-11-20T16:19:11;7.00;99.80
21895;DHT22;11112;51.270;7.224;2022-11-20T16:21:39;7.10;99.90
21895;DHT22;11112;51.270;7.224;2022-11-20T16:24:08;7.00;99.90
21895;DHT22;11112;51.270;7.224;2022-11-20T16:26:37;7.10;99.90